createdAt,value
2018-11-12T00:02:55.967Z,8.6
2018-11-12T00:07:58.314Z,8.6
2018-11-12T00:13:00.727Z,8.6
2018-11-12T00:18:03.185Z,8.7
2018-11-12T00:23:05.610Z,8.7
2018-11-12T00:28:08.063Z,8.7
2018-11-12T00:33:10.499Z,8.8
2018-11-12T00:38:12.934Z,8.9
2018-11-12T00:43:15.369Z,9
2018-11-12T00:48:17.822Z,9.1
2018-11-12T00:53:20.239Z,9.1
2018-11-12T00:58:22.698Z,9.3
2018-11-12T01:03:25.246Z,9.3
2018-11-12T01:08:27.572Z,9.3
2018-11-12T01:13:30.017Z,9.3
2018-11-12T01:18:32.460Z,9.4
2018-11-12T01:28:37.333Z,9.4
2018-11-12T01:33:39.807Z,9.4
2018-11-12T01:38:42.256Z,9.4
2018-11-12T01:43:44.645Z,9.4
2018-11-12T01:48:47.103Z,9.4
2018-11-12T01:53:49.569Z,9.3
2018-11-12T01:58:51.964Z,9.3
2018-11-12T02:03:54.425Z,9.3
2018-11-12T02:08:56.946Z,9.2
2018-11-12T02:13:59.292Z,9.1
2018-11-12T02:19:01.822Z,9
2018-11-12T02:24:04.181Z,8.8
2018-11-12T02:29:06.620Z,8.5
2018-11-12T02:34:09.057Z,8.2
2018-11-12T02:39:11.505Z,8.1
2018-11-12T02:49:16.405Z,8
2018-11-12T02:54:18.854Z,7.9
2018-11-12T02:59:21.279Z,8
2018-11-12T03:04:23.709Z,8.3
2018-11-12T03:09:26.163Z,8.5
2018-11-12T03:14:28.624Z,8.5
2018-11-12T03:19:31.102Z,8.4
2018-11-12T03:24:33.501Z,8.3
2018-11-12T03:29:35.965Z,8.1
2018-11-12T03:34:38.392Z,8
2018-11-12T03:39:40.898Z,8
2018-11-12T03:44:43.310Z,7.9
2018-11-12T03:49:45.700Z,7.8
2018-11-12T03:54:48.147Z,7.7
2018-11-12T03:59:50.598Z,7.7
2018-11-12T04:04:53.043Z,7.6
2018-11-12T04:09:55.494Z,7.6
2018-11-12T04:14:57.964Z,7.6
2018-11-12T04:20:00.404Z,7.6
2018-11-12T04:25:02.806Z,7.7
2018-11-12T04:30:05.286Z,7.7
2018-11-12T04:35:07.699Z,7.7
2018-11-12T04:40:10.127Z,7.7
2018-11-12T04:45:12.650Z,7.8
2018-11-12T04:50:15.032Z,8
2018-11-12T04:55:17.602Z,8.1
2018-11-12T05:00:19.937Z,8.3
2018-11-12T05:05:22.381Z,8.4
2018-11-12T05:10:24.797Z,8.3
2018-11-12T05:15:27.278Z,8.3
2018-11-12T05:20:29.692Z,8.3
2018-11-12T05:25:32.226Z,8.4
2018-11-12T05:30:34.648Z,8.4
2018-11-12T05:35:37.141Z,8.5
2018-11-12T05:40:39.442Z,8.6
2018-11-12T05:45:41.891Z,8.7
2018-11-12T05:50:44.343Z,8.7
2018-11-12T05:55:46.817Z,8.8
2018-11-12T06:00:49.210Z,8.9
2018-11-12T06:05:51.674Z,8.9
2018-11-12T06:10:54.099Z,8.9
2018-11-12T06:15:56.540Z,8.9
2018-11-12T06:20:58.976Z,8.9
2018-11-12T06:26:01.437Z,9
2018-11-12T06:31:03.870Z,8.9
2018-11-12T06:36:06.344Z,8.9
2018-11-12T06:41:08.735Z,9
2018-11-12T06:46:11.170Z,9
2018-11-12T06:51:13.630Z,8.9
2018-11-12T06:56:16.071Z,8.9
2018-11-12T07:01:18.504Z,8.8
2018-11-12T07:06:21.027Z,8.7
2018-11-12T07:11:23.388Z,8.7
2018-11-12T07:16:25.866Z,8.6
2018-11-12T07:21:28.303Z,8.6
2018-11-12T07:26:30.690Z,8.7
2018-11-12T07:31:33.169Z,8.7
2018-11-12T07:36:35.592Z,8.7
2018-11-12T07:41:38.032Z,8.7
2018-11-12T07:46:40.461Z,8.7
2018-11-12T07:51:42.914Z,8.7
2018-11-12T07:56:45.342Z,8.7
2018-11-12T08:01:47.791Z,8.7
2018-11-12T08:06:50.230Z,8.7
2018-11-12T08:11:52.725Z,8.8
2018-11-12T08:16:55.137Z,8.8
2018-11-12T08:21:57.558Z,8.9
2018-11-12T08:26:59.987Z,9
2018-11-12T08:32:02.702Z,9
2018-11-12T08:37:04.885Z,9.1
2018-11-12T08:42:07.310Z,9.2
2018-11-12T08:47:09.751Z,9.4
2018-11-12T08:52:12.370Z,9.5
2018-11-12T08:57:14.635Z,9.7
2018-11-12T09:02:17.072Z,9.9
2018-11-12T09:07:19.543Z,10
2018-11-12T09:12:22.012Z,10.1
2018-11-12T09:17:24.406Z,10.3
2018-11-12T09:22:26.846Z,10.5
2018-11-12T09:27:29.274Z,10.8
2018-11-12T09:32:31.777Z,11
2018-11-12T09:42:36.663Z,11.3
2018-11-12T09:47:39.077Z,11.5
2018-11-12T09:52:41.517Z,11.7
2018-11-12T09:57:43.907Z,11.9
2018-11-12T10:02:47.170Z,12.1
2018-11-12T10:07:51.433Z,12.3
2018-11-12T10:12:53.405Z,12.5
2018-11-12T10:17:55.820Z,12.8
2018-11-12T10:22:56.117Z,13.2
2018-11-12T10:27:58.572Z,13.6
2018-11-12T10:33:00.989Z,13.9
2018-11-12T10:38:03.451Z,14.4
2018-11-12T10:43:05.882Z,14.9
2018-11-12T10:48:08.400Z,15.3
2018-11-12T10:53:10.760Z,15.5
2018-11-12T10:58:13.306Z,15.7
2018-11-12T11:03:15.645Z,16
2018-11-12T11:08:18.195Z,16.4
2018-11-12T11:13:20.526Z,16.6
2018-11-12T11:18:22.954Z,16.8
2018-11-12T11:23:25.421Z,17.8
2018-11-12T11:28:27.897Z,18.8
2018-11-12T11:33:30.297Z,19.2
2018-11-12T11:38:32.736Z,20
2018-11-12T11:43:35.262Z,21.1
2018-11-12T11:48:37.720Z,22.2
2018-11-12T11:53:40.062Z,23.3
2018-11-12T11:58:42.522Z,24.1
2018-11-12T12:03:44.931Z,24.5
2018-11-12T12:08:47.457Z,24.7
2018-11-12T12:13:49.865Z,25.3
2018-11-12T12:18:52.422Z,26
2018-11-12T12:23:54.717Z,26.5
2018-11-12T12:28:57.181Z,26.7
2018-11-12T12:33:59.693Z,26.9
2018-11-12T12:39:02.047Z,26.6
2018-11-12T12:44:04.536Z,26.8
2018-11-12T12:49:06.913Z,27
2018-11-12T12:54:09.370Z,27
2018-11-12T12:59:11.815Z,27
2018-11-12T13:04:14.266Z,26.7
2018-11-12T13:09:16.710Z,26
2018-11-12T13:14:19.154Z,24.4
2018-11-12T13:19:21.603Z,22.6
2018-11-12T13:24:24.021Z,21.4
2018-11-12T13:29:26.472Z,20.4
2018-11-12T13:34:28.903Z,19.6
2018-11-12T13:39:31.433Z,18.4
2018-11-12T13:44:33.782Z,18.6
2018-11-12T13:49:36.220Z,18.2
2018-11-12T13:54:38.695Z,17.2
2018-11-12T13:59:41.101Z,16.4
2018-11-12T14:04:43.552Z,15.9
2018-11-12T14:09:46.013Z,15.5
2018-11-12T14:14:48.434Z,15
2018-11-12T14:19:50.865Z,14.4
2018-11-12T14:24:53.314Z,13.6
2018-11-12T14:29:55.748Z,13.2
2018-11-12T14:34:58.179Z,12.8
2018-11-12T14:40:00.663Z,12.6
2018-11-12T14:45:03.141Z,12.4
2018-11-12T14:50:05.521Z,12.2
2018-11-12T14:55:08.068Z,12.1
2018-11-12T15:00:10.405Z,12
2018-11-12T15:05:12.857Z,11.8
2018-11-12T15:10:15.281Z,11.5
2018-11-12T15:15:17.826Z,11.3
2018-11-12T15:20:20.151Z,11.2
2018-11-12T15:25:22.600Z,11
2018-11-12T15:30:25.027Z,10.9
2018-11-12T15:35:27.470Z,10.8
2018-11-12T15:40:29.985Z,10.8
2018-11-12T15:45:37.567Z,10.7
2018-11-12T15:50:34.832Z,10.6
2018-11-12T15:55:37.231Z,10.5
2018-11-12T16:00:39.667Z,10.3
2018-11-12T16:05:42.229Z,10.2
2018-11-12T16:10:44.580Z,10.1
2018-11-12T16:15:57.635Z,10.1
2018-11-12T16:20:49.429Z,9.9
2018-11-12T16:25:51.886Z,9.9
2018-11-12T16:30:54.584Z,9.8
2018-11-12T16:35:56.758Z,9.7
2018-11-12T16:40:59.319Z,9.6
2018-11-12T16:46:01.709Z,9.6
2018-11-12T16:51:04.107Z,9.6
2018-11-12T16:56:06.520Z,9.5
2018-11-12T17:01:08.977Z,9.6
2018-11-12T17:06:11.499Z,9.5
2018-11-12T17:11:13.907Z,9.4
2018-11-12T17:16:16.269Z,9.3
2018-11-12T17:21:18.709Z,9.3
2018-11-12T17:26:21.193Z,9.2
2018-11-12T17:31:23.600Z,9
2018-11-12T17:36:26.094Z,8.9
2018-11-12T17:41:28.651Z,8.9
2018-11-12T17:46:30.935Z,8.9
2018-11-12T17:51:33.457Z,8.7
2018-11-12T17:56:35.794Z,8.7
2018-11-12T18:01:38.337Z,8.7
2018-11-12T18:06:40.684Z,8.7
2018-11-12T18:11:43.156Z,8.6
2018-11-12T18:16:45.581Z,8.6
2018-11-12T18:21:48.113Z,8.7
2018-11-12T18:26:50.449Z,8.7
2018-11-12T18:31:53.090Z,8.6
2018-11-12T18:36:55.317Z,8.6
2018-11-12T18:41:58.013Z,8.6
2018-11-12T18:47:00.193Z,8.6
2018-11-12T18:52:02.627Z,8.5
2018-11-12T18:57:05.095Z,8.5
2018-11-12T19:02:07.519Z,8.5
2018-11-12T19:07:09.963Z,8.5
2018-11-12T19:12:12.419Z,8.5
2018-11-12T19:17:14.912Z,8.5
2018-11-12T19:22:17.269Z,8.5
2018-11-12T19:27:19.851Z,8.5
2018-11-12T19:32:22.371Z,8.4
2018-11-12T19:37:24.596Z,8.4
2018-11-12T19:42:27.036Z,8.4
2018-11-12T19:47:29.592Z,8.4
2018-11-12T19:52:31.911Z,8.3
2018-11-12T19:57:34.357Z,8.4
2018-11-12T20:02:36.787Z,8.4
2018-11-12T20:07:39.365Z,8.5
2018-11-12T20:12:41.682Z,8.6
2018-11-12T20:17:44.120Z,8.6
2018-11-12T20:22:46.579Z,8.6
2018-11-12T20:27:49.021Z,8.7
2018-11-12T20:32:51.528Z,8.6
2018-11-12T20:37:53.913Z,8.7
2018-11-12T20:42:56.326Z,8.7
2018-11-12T20:47:58.805Z,8.7
2018-11-12T20:53:01.219Z,8.7
2018-11-12T20:58:03.685Z,8.7
2018-11-12T21:03:06.104Z,8.7
2018-11-12T21:08:08.536Z,8.7
2018-11-12T21:13:10.988Z,8.7
2018-11-12T21:18:13.423Z,8.7
2018-11-12T21:23:15.836Z,8.8
2018-11-12T21:28:18.324Z,8.8
2018-11-12T21:33:20.716Z,9
2018-11-12T21:38:23.144Z,9.1
2018-11-12T21:43:25.784Z,9.2
2018-11-12T21:48:28.040Z,9.2
2018-11-12T21:53:30.466Z,9.2
2018-11-12T21:58:32.987Z,9.1
2018-11-12T22:03:35.350Z,9.1
2018-11-12T22:08:37.883Z,9
2018-11-12T22:18:42.691Z,9
2018-11-12T22:23:45.127Z,8.9
2018-11-12T22:28:47.598Z,8.9
2018-11-12T22:33:49.999Z,8.9
2018-11-12T22:38:52.434Z,8.8
2018-11-12T22:43:54.888Z,8.8
2018-11-12T22:48:57.315Z,8.9
2018-11-12T22:53:59.778Z,8.9
2018-11-12T22:59:02.216Z,8.9
2018-11-12T23:04:04.641Z,8.9
2018-11-12T23:09:07.102Z,8.9
2018-11-12T23:14:09.599Z,8.9
2018-11-12T23:19:11.964Z,8.9
2018-11-12T23:24:14.385Z,8.8
2018-11-12T23:29:16.833Z,8.8
2018-11-12T23:34:19.275Z,8.7
2018-11-12T23:39:21.746Z,8.6
2018-11-12T23:44:24.184Z,8.6
2018-11-12T23:49:26.607Z,8.5
2018-11-12T23:54:29.028Z,8.5
2018-11-12T23:59:31.486Z,8.4
